Time;durP1;ratioP1;P1;durP2;ratioP2;P2;SDS_P1;SDS_P2;PMS_P1;PMS_P2;Temp;Humidity;BMP_temperature;BMP_pressure;BME280_temperature;BME280_humidity;BME280_pressure;Samples;Min_cycle;Max_cycle;Signal;HPM_P1;HPM_P2
2020/12/23 00:00:26;;;;;;;6.03;5.43;;;;;;;17.89;nan;101014.84;5008878;28;97477;-74
2020/12/23 00:03:06;;;;;;;5.95;5.13;;;;;;;17.88;nan;101019.25;5005284;28;100505;-74
2020/12/23 00:05:36;;;;;;;6.18;5.57;;;;;;;17.86;nan;101018.28;5008832;28;98894;-75
2020/12/23 00:08:04;;;;;;;6.35;5.43;;;;;;;17.87;nan;101025.44;5007669;28;96794;-72
2020/12/23 00:10:31;;;;;;;8.40;6.05;;;;;;;17.90;nan;101017.53;4994740;28;96834;-72
2020/12/23 00:12:59;;;;;;;6.35;5.70;;;;;;;17.94;nan;101008.78;5004988;28;97988;-74
2020/12/23 00:15:27;;;;;;;6.40;5.57;;;;;;;17.94;nan;101007.88;5008331;28;97771;-74
2020/12/23 00:17:55;;;;;;;6.85;6.22;;;;;;;17.93;nan;101012.31;4989985;28;97544;-74
2020/12/23 00:20:22;;;;;;;6.78;6.07;;;;;;;17.88;nan;101011.28;5008591;28;97164;-75
2020/12/23 00:22:49;;;;;;;6.80;5.38;;;;;;;17.89;nan;101014.84;5005470;28;98071;-74
2020/12/23 00:25:17;;;;;;;6.68;6.00;;;;;;;17.88;nan;101018.38;5007715;28;102399;-73
2020/12/23 00:27:45;;;;;;;8.77;6.22;;;;;;;17.83;nan;101019.97;4973280;28;97519;-72
2020/12/23 00:30:12;;;;;;;6.80;6.03;;;;;;;17.86;nan;101010.31;4990481;28;97229;-73
2020/12/23 00:32:40;;;;;;;6.65;5.95;;;;;;;17.85;nan;101004.97;5000553;28;99030;-73
2020/12/23 00:35:08;;;;;;;7.75;5.97;;;;;;;17.84;nan;101008.50;4989075;28;100773;-74
2020/12/23 00:37:35;;;;;;;6.93;5.85;;;;;;;17.82;nan;101010.22;5007124;28;96942;-73
2020/12/23 00:40:03;;;;;;;6.65;6.00;;;;;;;17.78;nan;101006.56;5006648;28;97161;-73
2020/12/23 00:42:31;;;;;;;6.75;5.80;;;;;;;17.74;nan;101025.94;5010540;28;96874;-71
2020/12/23 00:44:59;;;;;;;6.80;6.00;;;;;;;17.68;nan;101008.94;5008142;28;97968;-74
2020/12/23 00:47:27;;;;;;;6.55;5.45;;;;;;;17.65;nan;100996.47;5007998;28;97452;-73
2020/12/23 00:49:55;;;;;;;6.47;5.85;;;;;;;17.64;nan;100999.06;4989179;28;96953;-74
2020/12/23 00:52:22;;;;;;;5.85;5.30;;;;;;;17.61;nan;100999.00;5007192;28;97625;-73
2020/12/23 00:54:50;;;;;;;7.82;6.15;;;;;;;17.63;nan;100999.91;4990416;28;98986;-72
2020/12/23 00:57:24;;;;;;;6.53;5.93;;;;;;;17.65;nan;101003.50;5002978;28;96925;-74
2020/12/23 00:59:52;;;;;;;6.63;5.97;;;;;;;17.69;nan;101005.41;5007708;28;99174;-74
2020/12/23 01:02:20;;;;;;;7.57;6.10;;;;;;;17.69;nan;100992.13;5006273;28;99112;-74
2020/12/23 01:04:47;;;;;;;7.15;6.40;;;;;;;17.64;nan;100983.13;5007789;28;97878;-74
2020/12/23 01:07:15;;;;;;;8.10;5.78;;;;;;;17.63;nan;100995.50;5004929;28;97558;-74
2020/12/23 01:09:43;;;;;;;6.45;5.85;;;;;;;17.66;nan;100992.06;5029186;22;98580;-75
2020/12/23 01:12:10;;;;;;;7.47;5.78;;;;;;;17.62;nan;100988.41;5023441;27;98111;-74
2020/12/23 01:14:37;;;;;;;6.53;5.82;;;;;;;17.64;nan;100989.34;5027064;28;97350;-74
2020/12/23 01:17:06;;;;;;;9.75;5.82;;;;;;;17.62;nan;100975.13;5040858;27;96904;-75
2020/12/23 01:19:33;;;;;;;7.15;5.80;;;;;;;17.65;nan;100977.84;5030180;27;96839;-75
2020/12/23 01:22:02;;;;;;;9.65;6.15;;;;;;;17.63;nan;100995.50;5033796;27;97882;-72
2020/12/23 01:24:29;;;;;;;6.95;6.28;;;;;;;17.63;nan;100997.25;5026950;28;96990;-74
2020/12/23 01:26:57;;;;;;;7.57;6.15;;;;;;;17.62;nan;101001.69;5022595;27;96919;-73
2020/12/23 01:29:24;;;;;;;7.57;5.82;;;;;;;17.62;nan;100999.03;5003972;28;97941;-73
2020/12/23 01:31:52;;;;;;;7.20;5.78;;;;;;;17.59;nan;101014.00;5003111;28;97059;-75
2020/12/23 01:34:20;;;;;;;6.90;6.20;;;;;;;17.59;nan;101009.56;4998667;28;96650;-73
2020/12/23 01:36:50;;;;;;;6.28;5.25;;;;;;;17.58;nan;101010.44;5013550;27;96741;-74
2020/12/23 01:39:18;;;;;;;7.65;6.25;;;;;;;17.61;nan;101012.28;4992560;28;96852;-73
2020/12/23 01:41:45;;;;;;;6.97;6.30;;;;;;;17.61;nan;101013.16;5001190;28;99370;-75
2020/12/23 01:44:13;;;;;;;6.32;5.72;;;;;;;17.59;nan;101014.88;5029117;28;97916;-74
2020/12/23 01:46:40;;;;;;;7.28;6.57;;;;;;;17.58;nan;101021.06;5007864;28;97017;-72
2020/12/23 01:49:08;;;;;;;7.70;6.50;;;;;;;17.58;nan;101026.38;5009323;28;96995;-74
2020/12/23 01:51:36;;;;;;;10.88;6.60;;;;;;;17.62;nan;101025.59;5008948;28;96962;-74
2020/12/23 01:54:04;;;;;;;8.48;6.45;;;;;;;17.60;nan;101029.97;4994482;28;97955;-75
2020/12/23 01:56:32;;;;;;;9.73;6.82;;;;;;;17.64;nan;101031.88;4998748;28;97136;-74
2020/12/23 01:59:17;;;;;;;9.23;6.35;;;;;;;17.65;nan;101032.75;5018460;28;97391;-75
2020/12/23 02:01:46;;;;;;;7.55;6.82;;;;;;;17.66;nan;101034.56;5008633;28;97390;-74
2020/12/23 02:04:21;;;;;;;9.10;7.70;;;;;;;17.70;nan;101033.81;5009283;28;99568;-75
2020/12/23 02:06:49;;;;;;;10.50;7.80;;;;;;;17.69;nan;101040.88;5009810;28;97401;-76
2020/12/23 02:09:18;;;;;;;8.73;7.63;;;;;;;17.68;nan;101040.81;5027494;28;97189;-76
2020/12/23 02:11:46;;;;;;;10.10;7.80;;;;;;;17.71;nan;101031.19;5019976;27;99622;-74
2020/12/23 02:14:31;;;;;;;9.70;7.95;;;;;;;17.73;nan;101021.50;5009550;28;100045;-76
2020/12/23 02:16:59;;;;;;;8.30;7.47;;;;;;;17.76;nan;101024.22;5019641;28;97327;-76
2020/12/23 02:19:27;;;;;;;10.32;7.10;;;;;;;17.77;nan;101009.19;5026394;28;97049;-73
2020/12/23 02:22:10;;;;;;;8.63;7.47;;;;;;;17.72;nan;101021.44;4988955;28;99604;-75
2020/12/23 02:24:39;;;;;;;9.93;7.50;;;;;;;17.70;nan;101015.19;5026407;28;97974;-75
2020/12/23 02:27:06;;;;;;;10.60;6.90;;;;;;;17.71;nan;101015.25;5027343;28;97124;-76
2020/12/23 02:29:34;;;;;;;8.68;6.82;;;;;;;17.72;nan;101022.34;5004203;28;98270;-74
2020/12/23 02:32:01;;;;;;;10.48;6.85;;;;;;;17.72;nan;101021.44;5008874;28;98332;-74
2020/12/23 02:34:40;;;;;;;8.65;6.82;;;;;;;17.69;nan;101024.00;5009436;28;98364;-77
2020/12/23 02:37:09;;;;;;;11.85;7.47;;;;;;;17.66;nan;101022.19;5020734;27;96754;-75
2020/12/23 02:39:37;;;;;;;10.00;7.55;;;;;;;17.64;nan;101017.66;5026060;27;97283;-77
2020/12/23 02:42:07;;;;;;;9.35;7.30;;;;;;;17.63;nan;100998.16;5026131;28;98263;-75
2020/12/23 02:44:34;;;;;;;10.30;7.22;;;;;;;17.64;nan;100996.41;5012915;28;97444;-76
2020/12/23 02:47:03;;;;;;;9.75;7.03;;;;;;;17.61;nan;100988.38;5008464;28;96778;-74
2020/12/23 02:49:31;;;;;;;8.90;6.85;;;;;;;17.62;nan;100979.53;5004896;28;97049;-76
2020/12/23 02:52:17;;;;;;;9.00;7.82;;;;;;;17.60;nan;100974.19;4998684;28;98616;-74
2020/12/23 02:54:45;;;;;;;9.15;6.97;;;;;;;17.57;nan;100983.81;5010438;28;97831;-75
2020/12/23 02:57:13;;;;;;;8.55;6.93;;;;;;;17.61;nan;100978.63;5010710;28;97277;-75
2020/12/23 02:59:41;;;;;;;9.77;7.30;;;;;;;17.58;nan;100981.19;5030996;28;96846;-74
2020/12/23 03:02:08;;;;;;;9.30;7.30;;;;;;;17.57;nan;100979.38;5028679;27;99260;-76
2020/12/23 03:04:36;;;;;;;9.80;7.30;;;;;;;17.59;nan;100985.66;5010054;28;98609;-74
2020/12/23 03:07:03;;;;;;;9.13;7.30;;;;;;;17.62;nan;100980.44;5027682;28;96714;-74
2020/12/23 03:09:31;;;;;;;9.23;7.20;;;;;;;17.60;nan;100986.56;5029881;28;97285;-75
2020/12/23 03:11:58;;;;;;;12.63;7.15;;;;;;;17.59;nan;100982.97;5012372;28;98404;-75
2020/12/23 03:14:26;;;;;;;10.65;7.43;;;;;;;17.62;nan;100975.13;5009349;28;101750;-75
2020/12/23 03:16:53;;;;;;;8.13;6.93;;;;;;;17.63;nan;100976.00;5011737;28;96694;-75
2020/12/23 03:19:21;;;;;;;9.98;7.43;;;;;;;17.66;nan;100974.34;5011122;28;96929;-74
2020/12/23 03:21:48;;;;;;;13.43;7.30;;;;;;;17.67;nan;100976.16;5007599;28;99857;-72
2020/12/23 03:24:15;;;;;;;9.30;7.05;;;;;;;17.67;nan;100973.50;5012942;28;97584;-76
2020/12/23 03:27:02;;;;;;;12.25;8.00;;;;;;;17.65;nan;100977.84;5002970;28;97059;-76
2020/12/23 03:29:48;;;;;;;10.52;7.07;;;;;;;17.65;nan;100992.88;5019475;27;96752;-74
2020/12/23 03:32:34;;;;;;;9.02;7.10;;;;;;;17.64;nan;100992.00;5029050;28;96993;-77
2020/12/23 03:35:12;;;;;;;10.73;7.65;;;;;;;17.67;nan;100993.84;5012978;28;98139;-76
2020/12/23 03:37:39;;;;;;;11.27;7.25;;;;;;;17.65;nan;100985.81;5029401;28;96647;-73
2020/12/23 03:40:07;;;;;;;12.52;8.07;;;;;;;17.66;nan;100997.38;5011011;28;97283;-75
2020/12/23 03:42:34;;;;;;;11.70;8.23;;;;;;;17.68;nan;101003.63;5010736;28;97640;-76
2020/12/23 03:45:03;;;;;;;9.65;7.63;;;;;;;17.63;nan;101006.13;5027913;28;97325;-75
2020/12/23 03:47:31;;;;;;;11.80;8.88;;;;;;;17.64;nan;101005.31;5015000;27;97145;-75
2020/12/23 03:49:58;;;;;;;11.43;7.95;;;;;;;17.65;nan;100999.13;5011049;28;96971;-74
2020/12/23 03:52:25;;;;;;;13.35;8.65;;;;;;;17.64;nan;101002.63;5029288;28;98175;-74
2020/12/23 03:54:53;;;;;;;11.43;9.07;;;;;;;17.64;nan;100992.00;5029592;28;98928;-75
2020/12/23 03:57:20;;;;;;;10.48;8.23;;;;;;;17.66;nan;100977.00;4999937;28;96992;-76
2020/12/23 03:59:48;;;;;;;10.68;7.90;;;;;;;17.63;nan;100979.56;5010904;28;97067;-76
2020/12/23 04:02:16;;;;;;;10.90;8.30;;;;;;;17.64;nan;100988.44;5010594;28;97840;-74
2020/12/23 04:04:44;;;;;;;13.75;8.40;;;;;;;17.65;nan;100983.16;5010936;28;98968;-74
2020/12/23 04:07:11;;;;;;;10.73;7.70;;;;;;;17.66;nan;100984.06;5011092;28;97102;-73
2020/12/23 04:09:39;;;;;;;9.93;7.90;;;;;;;17.65;nan;100985.81;5010273;28;96942;-75
2020/12/23 04:12:06;;;;;;;10.93;7.90;;;;;;;17.64;nan;100994.66;5011354;28;98981;-75
2020/12/23 04:14:34;;;;;;;17.70;9.00;;;;;;;17.64;nan;100978.72;5028861;27;98837;-74
2020/12/23 04:17:02;;;;;;;11.70;8.70;;;;;;;17.62;nan;100980.44;5030166;28;97044;-74
2020/12/23 04:19:30;;;;;;;14.45;9.38;;;;;;;17.65;nan;100980.50;5005242;28;97269;-75
2020/12/23 04:21:57;;;;;;;10.90;8.32;;;;;;;17.64;nan;100978.72;4996092;28;99379;-76
2020/12/23 04:24:25;;;;;;;12.90;8.50;;;;;;;17.63;nan;100979.56;5009828;28;98418;-74
2020/12/23 04:26:53;;;;;;;11.20;8.93;;;;;;;17.63;nan;100974.25;5030764;28;96776;-74
2020/12/23 04:29:20;;;;;;;12.57;9.45;;;;;;;17.67;nan;100978.81;5029443;27;97337;-74
2020/12/23 04:31:48;;;;;;;12.88;9.68;;;;;;;17.63;nan;100974.25;5028812;28;97855;-75
2020/12/23 04:34:15;;;;;;;13.93;9.10;;;;;;;17.63;nan;100971.59;5011087;28;99404;-75
2020/12/23 04:36:44;;;;;;;10.43;8.80;;;;;;;17.66;nan;100977.00;5028150;27;97178;-76
2020/12/23 04:39:11;;;;;;;12.45;9.45;;;;;;;17.64;nan;100978.72;5029056;28;96875;-74
2020/12/23 04:41:39;;;;;;;11.35;9.30;;;;;;;17.65;nan;100968.97;5010389;28;99717;-75
2020/12/23 04:44:07;;;;;;;15.10;9.20;;;;;;;17.65;nan;100977.84;5026507;28;97487;-75
2020/12/23 04:46:36;;;;;;;15.82;9.23;;;;;;;17.64;nan;100981.38;5027233;27;97954;-74
2020/12/23 04:49:04;;;;;;;11.85;8.48;;;;;;;17.62;nan;100984.84;5008003;28;97267;-73
2020/12/23 04:51:33;;;;;;;10.30;8.50;;;;;;;17.59;nan;100985.66;5029519;28;98365;-74
2020/12/23 04:54:03;;;;;;;15.27;10.57;;;;;;;17.61;nan;100975.09;4999480;28;99294;-74
2020/12/23 04:56:31;;;;;;;13.65;9.73;;;;;;;17.62;nan;100977.78;5010010;28;97325;-74
2020/12/23 04:59:01;;;;;;;13.73;9.77;;;;;;;17.60;nan;100979.50;5026141;28;97430;-76
2020/12/23 05:01:29;;;;;;;14.85;10.00;;;;;;;17.61;nan;100978.63;5032029;27;98379;-72
2020/12/23 05:03:56;;;;;;;14.70;9.45;;;;;;;17.63;nan;100971.59;5013152;28;97197;-74
2020/12/23 05:06:24;;;;;;;13.85;10.10;;;;;;;17.62;nan;100967.16;5011967;28;97443;-76
2020/12/23 05:08:52;;;;;;;14.35;9.60;;;;;;;17.64;nan;100965.44;5024946;27;96912;-76
2020/12/23 05:11:21;;;;;;;15.57;9.95;;;;;;;17.66;nan;100969.03;5026775;28;98141;-76
2020/12/23 05:13:52;;;;;;;10.75;8.88;;;;;;;17.65;nan;100972.53;5028863;28;99380;-78
2020/12/23 05:16:24;;;;;;;13.43;9.48;;;;;;;17.66;nan;100971.69;5010053;28;96731;-79
2020/12/23 05:18:56;;;;;;;12.00;9.13;;;;;;;17.66;nan;100977.00;5025514;27;96670;-76
2020/12/23 05:21:25;;;;;;;13.80;9.85;;;;;;;17.67;nan;100965.50;5028345;28;97476;-76
2020/12/23 05:23:53;;;;;;;15.30;9.77;;;;;;;17.61;nan;100969.78;4998575;28;97117;-75
2020/12/23 05:26:22;;;;;;;10.95;8.85;;;;;;;17.69;nan;100981.50;4991894;28;96895;-74
2020/12/23 05:28:51;;;;;;;15.40;10.27;;;;;;;17.61;nan;100970.66;4998201;28;97087;-73
2020/12/23 05:31:19;;;;;;;15.38;9.48;;;;;;;17.56;nan;100982.91;4995713;28;98363;-75
2020/12/23 05:33:48;;;;;;;13.05;9.57;;;;;;;17.58;nan;100981.19;5009697;28;98034;-74
2020/12/23 05:36:29;;;;;;;12.07;8.90;;;;;;;17.57;nan;100982.03;5027619;27;96960;-73
2020/12/23 05:38:58;;;;;;;13.02;9.10;;;;;;;17.57;nan;100984.69;5027138;28;97182;-75
2020/12/23 05:41:27;;;;;;;11.75;8.88;;;;;;;17.56;nan;100977.59;5009383;28;97412;-73
2020/12/23 05:43:55;;;;;;;15.25;9.95;;;;;;;17.56;nan;100980.25;5009295;28;98214;-76
2020/12/23 05:46:22;;;;;;;13.43;10.13;;;;;;;17.57;nan;100979.38;5007564;28;97723;-75
2020/12/23 05:48:50;;;;;;;13.07;9.65;;;;;;;17.59;nan;100987.44;4992994;28;97905;-76
2020/12/23 05:51:17;;;;;;;16.33;9.27;;;;;;;17.57;nan;100983.81;5009009;28;98204;-74
2020/12/23 05:53:44;;;;;;;14.32;9.45;;;;;;;17.60;nan;100983.91;5012756;27;100566;-74
2020/12/23 05:56:12;;;;;;;13.35;9.18;;;;;;;17.60;nan;100983.91;5019879;27;97263;-75
2020/12/23 05:58:40;;;;;;;13.52;9.00;;;;;;;17.60;nan;100983.91;5029284;28;96904;-73
2020/12/23 06:01:09;;;;;;;13.52;8.68;;;;;;;17.62;nan;100980.44;5026993;27;101180;-75
2020/12/23 06:03:51;;;;;;;13.23;8.73;;;;;;;17.70;nan;100991.28;5008127;28;97733;-73
2020/12/23 06:06:22;;;;;;;14.75;9.38;;;;;;;17.64;nan;100992.00;5002726;28;97374;-70
2020/12/23 06:08:52;;;;;;;14.75;9.85;;;;;;;17.72;nan;100973.59;5030593;27;98311;-72
2020/12/23 06:11:34;;;;;;;14.48;8.90;;;;;;;17.65;nan;100975.19;5012716;28;98801;-70
2020/12/23 06:14:14;;;;;;;17.80;10.27;;;;;;;17.59;nan;100982.97;5019242;28;98936;-71
2020/12/23 06:16:43;;;;;;;14.80;9.93;;;;;;;17.56;nan;100974.03;5027800;28;97328;-71
2020/12/23 06:19:13;;;;;;;15.75;10.05;;;;;;;17.56;nan;100959.00;5000184;28;97374;-73
2020/12/23 06:21:41;;;;;;;16.70;9.57;;;;;;;17.55;nan;100962.53;4991823;28;99070;-71
2020/12/23 06:24:13;;;;;;;16.35;10.05;;;;;;;17.53;nan;100960.69;5024621;28;96973;-72
2020/12/23 06:26:41;;;;;;;18.65;10.20;;;;;;;17.52;nan;100957.09;5026881;27;96934;-73
2020/12/23 06:29:12;;;;;;;18.23;9.05;;;;;;;17.51;nan;100950.00;5011341;28;97062;-73
2020/12/23 06:31:45;;;;;;;14.93;8.95;;;;;;;17.46;nan;100967.56;5028882;28;96708;-73
2020/12/23 06:34:14;;;;;;;14.07;8.68;;;;;;;17.49;nan;100965.00;5015131;28;97779;-73
2020/12/23 06:36:42;;;;;;;12.32;8.90;;;;;;;17.47;nan;100960.47;5020967;28;97347;-72
2020/12/23 06:39:27;;;;;;;14.15;9.45;;;;;;;17.41;nan;100969.16;5004359;28;97695;-74
2020/12/23 06:42:25;;;;;;;14.20;9.20;;;;;;;17.40;nan;100974.41;5024117;27;97356;-73
2020/12/23 06:44:55;;;;;;;14.85;9.05;;;;;;;17.38;nan;100971.72;5015550;27;97809;-73
2020/12/23 06:47:24;;;;;;;13.88;9.20;;;;;;;17.42;nan;100970.97;5009419;27;97394;-73
2020/12/23 06:49:53;;;;;;;14.73;9.73;;;;;;;17.39;nan;100969.97;5005466;28;96806;-74
2020/12/23 06:52:32;;;;;;;14.85;9.25;;;;;;;17.40;nan;100975.34;4987070;28;99976;-74
2020/12/23 06:55:01;;;;;;;14.75;9.10;;;;;;;17.44;nan;100971.00;5010743;28;99418;-72
2020/12/23 06:57:56;;;;;;;14.48;9.23;;;;;;;17.47;nan;100981.72;5016155;27;97232;-69
2020/12/23 07:00:37;;;;;;;16.15;9.88;;;;;;;17.46;nan;100975.53;5024018;28;97169;-74
2020/12/23 07:03:12;;;;;;;13.73;9.75;;;;;;;17.46;nan;100975.53;5017008;27;98879;-71
2020/12/23 07:05:44;;;;;;;15.15;9.18;;;;;;;17.41;nan;100971.81;5024868;27;99663;-73
2020/12/23 07:08:16;;;;;;;16.23;10.68;;;;;;;17.40;nan;100974.41;5022858;28;96694;-71
2020/12/23 07:10:51;;;;;;;13.82;9.07;;;;;;;17.40;nan;100971.75;5004944;28;97350;-72
2020/12/23 07:13:21;;;;;;;14.52;9.70;;;;;;;17.42;nan;100981.59;5009063;28;96923;-72
2020/12/23 07:15:58;;;;;;;13.68;8.55;;;;;;;17.46;nan;100972.88;5027283;27;97867;-72
2020/12/23 07:18:28;;;;;;;16.55;9.10;;;;;;;17.44;nan;100973.66;5005968;28;96861;-70
2020/12/23 07:21:01;;;;;;;14.02;8.80;;;;;;;17.42;nan;100973.63;5024251;28;96608;-74
2020/12/23 07:23:30;;;;;;;14.82;9.13;;;;;;;17.38;nan;100973.47;5021874;28;97634;-73
2020/12/23 07:25:59;;;;;;;12.65;7.97;;;;;;;17.36;nan;100973.44;5025798;27;98584;-73
2020/12/23 07:28:29;;;;;;;14.25;8.70;;;;;;;17.38;nan;100971.72;5029254;28;96630;-72
2020/12/23 07:30:57;;;;;;;14.95;8.52;;;;;;;17.37;nan;100972.56;5009717;28;96756;-71
2020/12/23 07:33:26;;;;;;;12.23;7.75;;;;;;;17.36;nan;100968.13;5021972;28;97985;-71
2020/12/23 07:35:55;;;;;;;16.27;8.55;;;;;;;17.38;nan;100970.81;5002243;28;98217;-72
2020/12/23 07:38:24;;;;;;;12.32;8.27;;;;;;;17.38;nan;100971.72;5023997;28;96991;-73
2020/12/23 07:40:53;;;;;;;11.85;7.70;;;;;;;17.37;nan;100975.22;5006699;28;96873;-73
2020/12/23 07:43:21;;;;;;;14.00;8.80;;;;;;;17.40;nan;100970.03;5025574;27;98112;-72
2020/12/23 07:45:49;;;;;;;13.38;8.10;;;;;;;17.40;nan;100974.41;4998263;28;98162;-73
2020/12/23 07:48:18;;;;;;;13.90;8.50;;;;;;;17.41;nan;100982.44;5016975;28;97143;-73
2020/12/23 07:50:48;;;;;;;12.13;7.53;;;;;;;17.38;nan;100982.34;5022763;27;97611;-72
2020/12/23 07:53:17;;;;;;;15.63;7.47;;;;;;;17.41;nan;100990.41;5029608;28;99351;-71
2020/12/23 07:55:46;;;;;;;9.90;6.85;;;;;;;17.40;nan;100987.69;5010603;28;97323;-71
2020/12/23 07:58:14;;;;;;;9.88;6.38;;;;;;;17.39;nan;100992.09;5012027;28;96938;-73
2020/12/23 08:00:44;;;;;;;9.07;6.63;;;;;;;17.39;nan;101001.84;5028675;27;97953;-70
2020/12/23 08:03:12;;;;;;;14.55;6.50;;;;;;;17.39;nan;101007.16;5012176;28;101222;-71
2020/12/23 08:05:40;;;;;;;11.02;6.90;;;;;;;17.42;nan;101000.19;5029277;28;98010;-70
2020/12/23 08:08:26;;;;;;;10.18;6.50;;;;;;;17.43;nan;100991.34;5029307;27;97266;-74
2020/12/23 08:10:53;;;;;;;7.85;6.97;;;;;;;17.47;nan;100980.00;5028789;28;96741;-73
2020/12/23 08:13:25;;;;;;;8.73;6.78;;;;;;;17.43;nan;100983.38;5027421;28;97745;-72
2020/12/23 08:16:03;;;;;;;9.55;6.32;;;;;;;17.47;nan;100987.97;5029528;28;98384;-74
2020/12/23 08:18:31;;;;;;;10.35;6.47;;;;;;;17.45;nan;100979.00;5029054;27;96757;-74
2020/12/23 08:20:58;;;;;;;10.75;7.05;;;;;;;17.42;nan;100981.59;5031058;28;96905;-74
2020/12/23 08:23:26;;;;;;;10.90;7.47;;;;;;;17.44;nan;100976.31;5010927;28;99553;-73
2020/12/23 08:25:54;;;;;;;9.52;6.15;;;;;;;17.46;nan;100975.53;5030799;27;97856;-71
2020/12/23 08:28:22;;;;;;;8.60;6.45;;;;;;;17.42;nan;100978.94;5015087;27;96943;-73
2020/12/23 08:30:50;;;;;;;8.27;6.50;;;;;;;17.32;nan;100965.34;4996958;27;96930;-73
2020/12/23 08:33:18;;;;;;;12.73;7.88;;;;;;;17.31;nan;100959.13;5009073;28;99372;-74
2020/12/23 08:35:46;;;;;;;9.82;6.80;;;;;;;17.28;nan;100956.38;4994443;28;98045;-73
2020/12/23 08:38:18;;;;;;;9.65;6.90;;;;;;;17.29;nan;100950.22;5025725;27;96901;-72
2020/12/23 08:40:50;;;;;;;12.05;6.53;;;;;;;17.28;nan;100952.84;5025535;28;97491;-73
2020/12/23 08:43:21;;;;;;;10.52;6.35;;;;;;;17.31;nan;100964.44;5026336;28;97095;-72
2020/12/23 08:45:49;;;;;;;9.45;6.00;;;;;;;17.30;nan;100957.31;5027603;28;98061;-73
2020/12/23 08:48:20;;;;;;;9.30;5.95;;;;;;;17.33;nan;100951.22;5026902;27;97194;-73
2020/12/23 08:50:55;;;;;;;8.50;5.95;;;;;;;17.37;nan;100948.66;5009792;28;97137;-72
2020/12/23 08:53:29;;;;;;;10.68;6.40;;;;;;;17.44;nan;100945.34;5016884;27;98116;-71
2020/12/23 08:55:58;;;;;;;8.63;6.07;;;;;;;17.48;nan;100939.28;5007952;28;99336;-74
2020/12/23 08:58:26;;;;;;;8.65;6.18;;;;;;;17.47;nan;100932.19;4973955;28;97217;-75
2020/12/23 09:00:57;;;;;;;12.10;6.40;;;;;;;17.45;nan;100936.50;5025021;27;96700;-73
2020/12/23 09:03:26;;;;;;;12.65;7.38;;;;;;;17.47;nan;100934.84;5008552;28;96823;-74
2020/12/23 09:05:57;;;;;;;13.07;9.23;;;;;;;17.49;nan;100935.78;5009831;28;98606;-73
2020/12/23 09:08:26;;;;;;;9.82;6.60;;;;;;;17.52;nan;100926.97;5027347;28;96815;-72
2020/12/23 09:10:55;;;;;;;9.98;6.78;;;;;;;17.48;nan;100928.66;5026840;27;96732;-72
2020/12/23 09:13:30;;;;;;;9.23;6.70;;;;;;;17.51;nan;100919.88;5027579;27;98940;-72
2020/12/23 09:15:58;;;;;;;8.63;5.60;;;;;;;17.57;nan;100920.94;5029527;27;98106;-71
2020/12/23 09:18:25;;;;;;;9.15;5.95;;;;;;;17.55;nan;100925.34;5028481;28;96871;-73
2020/12/23 09:20:58;;;;;;;9.13;6.60;;;;;;;17.57;nan;100912.97;5008504;28;96987;-70
2020/12/23 09:23:26;;;;;;;8.77;5.93;;;;;;;17.60;nan;100914.81;5019040;27;97492;-69
2020/12/23 09:25:56;;;;;;;12.40;7.15;;;;;;;17.62;nan;100923.75;5007949;28;97368;-71
2020/12/23 09:28:31;;;;;;;9.98;7.35;;;;;;;17.61;nan;100919.28;4999802;28;97739;-71
2020/12/23 09:31:00;;;;;;;13.88;7.93;;;;;;;17.65;nan;100927.38;5002989;28;97820;-71
2020/12/23 09:33:39;;;;;;;11.00;7.10;;;;;;;17.62;nan;100924.66;5025445;28;97070;-73
2020/12/23 09:36:08;;;;;;;10.77;7.03;;;;;;;17.61;nan;100932.56;5024562;27;100671;-73
2020/12/23 09:38:36;;;;;;;13.98;8.23;;;;;;;17.66;nan;100925.63;5006785;28;97290;-74
2020/12/23 09:41:06;;;;;;;11.98;6.90;;;;;;;17.65;nan;100927.38;4993467;28;97190;-74
2020/12/23 09:43:36;;;;;;;11.07;7.22;;;;;;;17.67;nan;100920.34;5005224;28;98385;-74
2020/12/23 09:46:08;;;;;;;12.50;7.43;;;;;;;17.73;nan;100917.88;5008461;28;98835;-73
2020/12/23 09:48:36;;;;;;;13.82;7.63;;;;;;;17.69;nan;100915.97;5007558;28;97189;-75
2020/12/23 09:51:06;;;;;;;10.52;6.68;;;;;;;17.78;nan;100916.22;5008375;28;97015;-74
2020/12/23 09:53:34;;;;;;;11.90;7.38;;;;;;;17.82;nan;100910.13;5008570;28;98548;-74
2020/12/23 09:56:05;;;;;;;22.77;12.35;;;;;;;17.83;nan;100903.94;5026662;28;98977;-73
2020/12/23 09:58:33;;;;;;;16.00;10.68;;;;;;;17.82;nan;100910.13;5025829;27;96561;-73
2020/12/23 10:01:02;;;;;;;13.48;8.77;;;;;;;17.87;nan;100907.56;5009647;28;97131;-74
2020/12/23 10:03:29;;;;;;;12.65;6.50;;;;;;;17.87;nan;100894.28;4995163;28;101125;-75
2020/12/23 10:05:57;;;;;;;9.85;7.30;;;;;;;17.85;nan;100891.59;5004618;28;99078;-73
2020/12/23 10:08:24;;;;;;;12.77;7.28;;;;;;;17.86;nan;100879.22;5006011;28;96855;-72
2020/12/23 10:10:51;;;;;;;8.98;7.03;;;;;;;17.88;nan;100875.72;5021018;28;97422;-74
2020/12/23 10:13:19;;;;;;;10.45;7.18;;;;;;;17.90;nan;100868.69;5004452;28;99483;-75
2020/12/23 10:15:50;;;;;;;11.35;7.45;;;;;;;17.87;nan;100863.28;5030981;27;97814;-74
2020/12/23 10:18:18;;;;;;;12.52;8.38;;;;;;;17.85;nan;100865.00;5008257;28;96734;-72
2020/12/23 10:20:45;;;;;;;44.15;25.80;;;;;;;17.89;nan;100869.56;5028460;28;96859;-74
2020/12/23 10:23:13;;;;;;;19.52;13.30;;;;;;;17.93;nan;100865.22;5029018;28;99109;-72
2020/12/23 10:25:40;;;;;;;16.40;8.73;;;;;;;17.94;nan;100867.91;5028756;27;99007;-74
2020/12/23 10:28:08;;;;;;;11.45;7.78;;;;;;;17.99;nan;100860.06;5007007;28;97543;-74
2020/12/23 10:30:36;;;;;;;14.35;7.55;;;;;;;18.00;nan;100860.09;5022941;28;96977;-73
2020/12/23 10:33:10;;;;;;;13.50;8.52;;;;;;;18.03;nan;100849.53;4999123;27;98832;-73
2020/12/23 10:35:38;;;;;;;16.45;9.30;;;;;;;17.96;nan;100855.56;5023114;28;99325;-74
2020/12/23 10:38:06;;;;;;;12.20;8.57;;;;;;;18.00;nan;100841.47;5002756;28;98974;-73
2020/12/23 10:40:33;;;;;;;14.63;8.43;;;;;;;18.05;nan;100841.56;5021474;28;96660;-75
2020/12/23 10:43:02;;;;;;;13.50;8.15;;;;;;;18.08;nan;100834.56;5023589;27;99282;-73
2020/12/23 10:45:30;;;;;;;12.85;8.55;;;;;;;18.11;nan;100833.75;5019979;27;96934;-73
2020/12/23 10:47:57;;;;;;;14.88;9.30;;;;;;;18.09;nan;100827.50;5023918;28;96821;-75
2020/12/23 10:50:26;;;;;;;15.48;11.00;;;;;;;18.06;nan;100812.34;5005394;28;97484;-74
2020/12/23 10:52:54;;;;;;;18.45;10.07;;;;;;;18.02;nan;100810.53;5022431;27;99107;-75
2020/12/23 10:55:21;;;;;;;18.77;10.90;;;;;;;18.01;nan;100806.03;4987815;28;99260;-73
2020/12/23 10:57:49;;;;;;;17.67;10.88;;;;;;;18.03;nan;100801.66;5021056;28;96763;-74
2020/12/23 11:00:17;;;;;;;17.48;9.77;;;;;;;18.06;nan;100790.22;5026350;28;96789;-73
2020/12/23 11:02:44;;;;;;;16.02;9.32;;;;;;;18.04;nan;100792.84;5024499;27;97855;-72
2020/12/23 11:05:12;;;;;;;15.95;9.27;;;;;;;18.07;nan;100787.59;5021563;28;98446;-73
2020/12/23 11:07:40;;;;;;;17.13;9.88;;;;;;;18.04;nan;100782.22;5002625;28;96802;-71
2020/12/23 11:10:13;;;;;;;15.45;9.50;;;;;;;18.03;nan;100771.50;5004312;28;97881;-71
2020/12/23 11:12:41;;;;;;;17.83;9.98;;;;;;;17.67;nan;100763.59;5023635;27;98084;-73
2020/12/23 11:15:08;;;;;;;17.30;10.35;;;;;;;17.63;nan;100761.69;5023518;27;97877;-73
2020/12/23 11:17:36;;;;;;;16.83;9.52;;;;;;;17.60;nan;100761.63;5022804;28;97109;-72
2020/12/23 11:20:04;;;;;;;18.60;11.35;;;;;;;17.67;nan;100755.59;5023486;27;97443;-74
2020/12/23 11:22:32;;;;;;;17.95;11.20;;;;;;;17.69;nan;100748.56;5011582;28;99174;-73
2020/12/23 11:25:04;;;;;;;18.95;10.50;;;;;;;17.70;nan;100757.47;4995762;28;97798;-74
2020/12/23 11:27:32;;;;;;;21.98;12.32;;;;;;;17.74;nan;100756.63;5010074;27;97252;-75
2020/12/23 11:30:00;;;;;;;29.00;15.98;;;;;;;17.81;nan;100750.63;5008122;28;97386;-73
2020/12/23 11:32:28;;;;;;;22.17;12.90;;;;;;;17.77;nan;100746.97;5025661;27;99085;-75
2020/12/23 11:34:56;;;;;;;24.17;12.43;;;;;;;17.82;nan;100741.78;5021754;28;99138;-74
2020/12/23 11:37:24;;;;;;;23.08;11.43;;;;;;;17.81;nan;100730.25;5018455;27;97614;-74
2020/12/23 11:39:52;;;;;;;26.65;12.65;;;;;;;17.87;nan;100727.75;5006565;28;97107;-74
2020/12/23 11:42:20;;;;;;;24.10;12.65;;;;;;;17.83;nan;100720.56;5024897;28;96861;-74
2020/12/23 11:44:48;;;;;;;26.83;12.32;;;;;;;17.82;nan;100716.13;5003647;28;98306;-74